createdAt,value
2022-10-03T00:02:39.705Z,4.37
2022-10-03T00:05:25.419Z,4.17
2022-10-03T00:08:10.289Z,3.70
2022-10-03T00:11:03.177Z,4.27
2022-10-03T00:13:57.437Z,3.67
2022-10-03T00:16:36.708Z,3.90
2022-10-03T00:19:41.020Z,4.23
2022-10-03T00:22:46.335Z,3.40
2022-10-03T00:25:43.462Z,3.93
2022-10-03T00:28:51.159Z,4.50
2022-10-03T00:31:25.253Z,4.23
2022-10-03T00:34:23.806Z,4.53
2022-10-03T00:37:08.657Z,4.60
2022-10-03T00:40:04.998Z,4.33
2022-10-03T00:42:46.711Z,4.40
2022-10-03T00:45:42.692Z,5.33
2022-10-03T00:48:30.505Z,5.70
2022-10-03T00:51:03.599Z,4.93
2022-10-03T00:53:47.633Z,4.60
2022-10-03T00:56:24.568Z,4.60
2022-10-03T00:59:48.189Z,4.60
2022-10-03T01:02:26.943Z,4.53
2022-10-03T01:05:03.735Z,4.70
2022-10-03T01:07:48.159Z,5.30
2022-10-03T01:10:36.493Z,5.40
2022-10-03T01:13:07.836Z,5.57
2022-10-03T01:15:53.946Z,4.73
2022-10-03T01:18:48.691Z,5.13
2022-10-03T01:21:37.330Z,5.70
2022-10-03T01:24:07.284Z,5.27
2022-10-03T01:26:53.085Z,5.83
2022-10-03T01:30:09.666Z,4.33
2022-10-03T01:32:53.016Z,5.40
2022-10-03T01:35:44.676Z,5.07
2022-10-03T01:38:42.411Z,5.53
2022-10-03T01:41:40.650Z,5.23
2022-10-03T01:44:26.840Z,5.20
2022-10-03T01:47:20.863Z,5.43
2022-10-03T01:50:19.707Z,5.07
2022-10-03T01:53:00.236Z,4.70
2022-10-03T01:55:54.095Z,5.90
2022-10-03T01:58:47.038Z,6.10
2022-10-03T02:01:29.321Z,4.80
2022-10-03T02:04:04.533Z,6.57
2022-10-03T02:06:49.891Z,5.40
2022-10-03T02:09:33.731Z,5.57
2022-10-03T02:12:35.243Z,6.30
2022-10-03T02:15:16.647Z,6.80
2022-10-03T02:18:05.505Z,5.10
2022-10-03T02:21:10.912Z,5.00
2022-10-03T02:23:43.953Z,5.00
2022-10-03T02:26:10.704Z,4.83
2022-10-03T02:29:00.241Z,6.20
2022-10-03T02:31:52.653Z,5.40
2022-10-03T02:34:48.383Z,5.37
2022-10-03T02:37:27.475Z,4.73
2022-10-03T02:40:06.898Z,4.77
2022-10-03T02:43:01.729Z,4.37
2022-10-03T02:45:53.063Z,4.53
2022-10-03T02:48:38.347Z,4.20
2022-10-03T02:51:38.827Z,4.27
2022-10-03T02:54:17.693Z,4.30
2022-10-03T02:57:05.289Z,4.47
2022-10-03T03:00:07.079Z,5.37
2022-10-03T03:03:01.893Z,4.70
2022-10-03T03:05:59.549Z,4.70
2022-10-03T03:08:48.057Z,4.40
2022-10-03T03:11:18.836Z,4.43
2022-10-03T03:14:18.957Z,5.37
2022-10-03T03:17:00.704Z,4.50
2022-10-03T03:19:36.503Z,4.40
2022-10-03T03:22:25.981Z,4.90
2022-10-03T03:25:23.963Z,4.70
2022-10-03T03:28:24.601Z,4.90
2022-10-03T03:31:24.114Z,5.40
2022-10-03T03:33:57.361Z,4.30
2022-10-03T03:36:55.797Z,5.63
2022-10-03T03:39:50.302Z,5.60
2022-10-03T03:42:42.721Z,4.73
2022-10-03T03:45:19.436Z,4.97
2022-10-03T03:48:26.181Z,4.20
2022-10-03T03:51:15.283Z,4.63
2022-10-03T03:53:46.006Z,3.43
2022-10-03T03:56:49.302Z,5.13
2022-10-03T03:59:44.002Z,4.67
2022-10-03T04:02:18.521Z,3.90
2022-10-03T04:05:23.740Z,4.97
2022-10-03T04:08:21.206Z,4.40
2022-10-03T04:11:11.976Z,3.50
2022-10-03T04:14:06.114Z,5.93
2022-10-03T04:17:26.457Z,4.47
2022-10-03T04:20:02.159Z,4.30
2022-10-03T04:22:38.833Z,4.33
2022-10-03T04:25:32.040Z,4.47
2022-10-03T04:28:10.900Z,4.63
2022-10-03T04:30:55.353Z,6.30
2022-10-03T04:33:31.847Z,5.50
2022-10-03T04:36:17.347Z,5.20
2022-10-03T04:38:59.535Z,5.53
2022-10-03T04:41:42.752Z,5.37
2022-10-03T04:44:26.888Z,5.73
2022-10-03T04:47:15.547Z,5.60
2022-10-03T04:49:56.645Z,5.20
2022-10-03T04:52:42.015Z,5.00
2022-10-03T04:55:45.967Z,5.43
2022-10-03T04:58:37.798Z,5.53
2022-10-03T05:01:40.615Z,5.60
2022-10-03T05:04:30.693Z,5.77
2022-10-03T05:07:12.014Z,6.00
2022-10-03T05:10:20.597Z,4.70
2022-10-03T05:13:15.514Z,6.10
2022-10-03T05:15:54.422Z,5.80
2022-10-03T05:18:35.249Z,6.37
2022-10-03T05:21:20.441Z,5.47
2022-10-03T05:24:04.870Z,5.70
2022-10-03T05:26:44.964Z,5.70
2022-10-03T05:29:17.916Z,6.27
2022-10-03T05:32:13.519Z,6.70
2022-10-03T05:34:51.394Z,7.90
2022-10-03T05:37:21.136Z,7.80
2022-10-03T05:40:00.407Z,8.13
2022-10-03T05:42:37.950Z,8.47
2022-10-03T05:45:29.578Z,7.50
2022-10-03T05:48:23.932Z,7.40
2022-10-03T05:51:06.958Z,8.17
2022-10-03T05:53:45.619Z,7.63
2022-10-03T05:56:31.825Z,8.33
2022-10-03T05:59:28.923Z,8.07
2022-10-03T06:02:00.101Z,7.77
2022-10-03T06:04:34.206Z,7.70
2022-10-03T06:07:09.578Z,7.90
2022-10-03T06:09:54.988Z,8.40
2022-10-03T06:12:44.043Z,7.53
2022-10-03T06:15:29.663Z,9.13
2022-10-03T06:18:17.845Z,7.60
2022-10-03T06:21:29.470Z,7.80
2022-10-03T06:24:11.192Z,8.30
2022-10-03T06:26:43.873Z,9.17
2022-10-03T06:29:41.386Z,9.57
2022-10-03T06:32:10.919Z,7.70
2022-10-03T06:35:13.560Z,8.30
2022-10-03T06:38:18.050Z,9.57
2022-10-03T06:40:53.581Z,11.37
2022-10-03T06:43:30.403Z,11.60
2022-10-03T06:46:00.227Z,10.50
2022-10-03T06:48:36.457Z,18.87
2022-10-03T06:51:32.024Z,6.87
2022-10-03T06:54:20.868Z,5.77
2022-10-03T06:57:03.155Z,4.30
2022-10-03T06:59:46.982Z,4.80
2022-10-03T07:02:35.830Z,4.50
2022-10-03T07:05:41.387Z,4.47
2022-10-03T07:08:59.834Z,4.17
2022-10-03T07:11:58.111Z,4.03
2022-10-03T07:14:56.770Z,3.77
2022-10-03T07:17:50.183Z,4.10
2022-10-03T07:20:32.712Z,4.40
2022-10-03T07:23:40.365Z,4.20
2022-10-03T07:26:40.772Z,3.90
2022-10-03T07:29:18.600Z,4.10
2022-10-03T07:32:17.735Z,3.60
2022-10-03T07:35:14.749Z,4.20
2022-10-03T07:38:52.339Z,4.57
2022-10-03T07:42:00.879Z,4.13
2022-10-03T07:44:59.597Z,3.93
2022-10-03T07:47:53.176Z,3.97
2022-10-03T07:50:40.338Z,3.40
2022-10-03T07:53:31.939Z,3.60
2022-10-03T07:56:20.132Z,3.37
2022-10-03T07:59:24.892Z,3.50
2022-10-03T08:02:09.026Z,3.10
2022-10-03T08:04:51.043Z,3.17
2022-10-03T08:07:38.989Z,3.07
2022-10-03T08:10:23.439Z,3.13
2022-10-03T08:13:25.524Z,3.40
2022-10-03T08:16:02.999Z,3.17
2022-10-03T08:18:45.378Z,3.03
2022-10-03T08:21:37.842Z,3.00
2022-10-03T08:24:32.341Z,3.10
2022-10-03T08:26:59.017Z,2.97
2022-10-03T08:29:51.875Z,2.70
2022-10-03T08:32:50.542Z,2.57
2022-10-03T08:35:29.174Z,2.13
2022-10-03T08:37:58.814Z,2.00
2022-10-03T08:40:56.689Z,2.60
2022-10-03T08:44:00.869Z,2.53
2022-10-03T08:46:43.333Z,2.33
2022-10-03T08:49:35.497Z,2.78
2022-10-03T08:52:25.846Z,2.90
2022-10-03T08:55:23.519Z,2.92
2022-10-03T08:58:31.876Z,3.15
2022-10-03T09:01:40.835Z,2.97
2022-10-03T09:04:39.361Z,2.78
2022-10-03T09:07:44.760Z,1.80
2022-10-03T09:10:33.025Z,2.30
2022-10-03T09:13:17.908Z,2.45
2022-10-03T09:15:57.097Z,1.92
2022-10-03T09:18:48.558Z,2.08
2022-10-03T09:21:41.000Z,2.10
2022-10-03T09:24:48.960Z,1.30
2022-10-03T09:27:45.115Z,1.67
2022-10-03T09:30:21.281Z,2.05
2022-10-03T09:32:56.990Z,1.40
2022-10-03T09:35:54.204Z,1.25
2022-10-03T09:38:34.729Z,1.13
2022-10-03T09:41:19.987Z,1.30
2022-10-03T09:44:14.694Z,1.98
2022-10-03T09:47:15.374Z,1.38
2022-10-03T09:50:00.960Z,1.48
2022-10-03T09:53:13.407Z,1.27
2022-10-03T09:56:01.665Z,1.10
2022-10-03T09:58:41.021Z,1.52
2022-10-03T10:01:19.409Z,1.58
2022-10-03T10:03:46.215Z,1.17
2022-10-03T10:06:31.116Z,1.52
2022-10-03T10:09:19.024Z,1.40
2022-10-03T10:11:57.907Z,1.30
2022-10-03T10:14:36.772Z,1.10
2022-10-03T10:17:26.333Z,1.20
2022-10-03T10:20:24.647Z,0.80
2022-10-03T10:23:15.704Z,1.08
2022-10-03T10:26:12.719Z,1.35
2022-10-03T10:29:11.560Z,1.00
2022-10-03T10:32:05.065Z,1.23
2022-10-03T10:34:47.029Z,1.40
2022-10-03T10:37:55.049Z,1.30
2022-10-03T10:40:54.963Z,1.10
2022-10-03T10:43:54.920Z,1.20
2022-10-03T10:46:46.949Z,1.25
2022-10-03T10:50:07.460Z,1.50
2022-10-03T10:52:45.902Z,1.10
2022-10-03T10:55:52.992Z,1.00
2022-10-03T10:58:39.214Z,1.48
2022-10-03T11:01:56.353Z,1.10
2022-10-03T11:04:41.866Z,1.17
2022-10-03T11:07:35.537Z,1.45
2022-10-03T11:10:30.344Z,1.15
2022-10-03T11:13:25.152Z,1.23
2022-10-03T11:16:35.396Z,1.10
2022-10-03T11:19:34.739Z,1.20
2022-10-03T11:22:39.158Z,1.27
2022-10-03T11:26:01.646Z,1.50
2022-10-03T11:29:08.828Z,1.27
2022-10-03T11:31:41.808Z,1.17
2022-10-03T11:34:40.822Z,1.52
2022-10-03T11:37:32.663Z,1.50
2022-10-03T11:40:24.549Z,1.60
2022-10-03T11:43:28.373Z,2.03
2022-10-03T11:46:07.862Z,1.17
2022-10-03T11:49:04.845Z,1.25
2022-10-03T11:51:43.756Z,1.38
2022-10-03T11:54:32.161Z,1.50
2022-10-03T11:57:09.563Z,1.10
2022-10-03T11:59:54.657Z,1.33
2022-10-03T12:02:59.857Z,1.20
2022-10-03T12:05:48.715Z,1.50
2022-10-03T12:08:51.928Z,1.20
2022-10-03T12:11:44.495Z,1.63
2022-10-03T12:14:30.225Z,0.98
2022-10-03T12:17:15.854Z,1.55
2022-10-03T12:20:03.716Z,1.20
2022-10-03T12:23:02.156Z,1.10
2022-10-03T12:25:34.841Z,1.15
2022-10-03T12:28:25.051Z,1.27
2022-10-03T12:31:00.797Z,1.23
2022-10-03T12:33:33.347Z,0.95
2022-10-03T12:36:15.525Z,1.17
2022-10-03T12:38:51.040Z,5.55
2022-10-03T12:41:42.385Z,1.52
2022-10-03T12:45:00.471Z,1.83
2022-10-03T12:47:56.972Z,1.50
2022-10-03T12:50:57.087Z,1.50
2022-10-03T12:53:35.713Z,1.35
2022-10-03T12:56:16.329Z,1.25
2022-10-03T12:58:58.604Z,1.60
2022-10-03T13:01:31.295Z,1.60
2022-10-03T13:04:39.033Z,1.52
2022-10-03T13:07:23.997Z,1.52
2022-10-03T13:10:00.523Z,4.65
2022-10-03T13:12:55.001Z,2.80
2022-10-03T13:15:48.005Z,1.45
2022-10-03T13:18:26.490Z,2.65
2022-10-03T13:21:26.821Z,1.75
2022-10-03T13:24:20.604Z,1.52
2022-10-03T13:27:34.885Z,1.63
2022-10-03T13:30:15.348Z,1.90
2022-10-03T13:32:46.801Z,1.85
2022-10-03T13:36:01.632Z,1.30
2022-10-03T13:38:47.025Z,1.52
2022-10-03T13:41:19.981Z,4.13
2022-10-03T13:44:00.711Z,1.92
2022-10-03T13:46:37.549Z,1.60
2022-10-03T13:49:18.501Z,1.48
2022-10-03T13:51:53.937Z,1.67
2022-10-03T13:54:52.236Z,1.50
2022-10-03T13:57:29.403Z,1.48
2022-10-03T14:00:21.269Z,1.63
2022-10-03T14:03:13.779Z,1.40
2022-10-03T14:06:10.838Z,1.48
2022-10-03T14:08:43.610Z,1.35
2022-10-03T14:11:42.496Z,1.67
2022-10-03T14:14:41.687Z,1.60
2022-10-03T14:17:24.768Z,1.75
2022-10-03T14:20:26.786Z,1.88
2022-10-03T14:23:20.559Z,1.58
2022-10-03T14:26:10.776Z,1.85
2022-10-03T14:28:59.398Z,1.60
2022-10-03T14:31:34.360Z,1.40
2022-10-03T14:34:01.332Z,1.58
2022-10-03T14:36:46.960Z,1.60
2022-10-03T14:39:38.699Z,1.85
2022-10-03T14:42:53.880Z,1.80
2022-10-03T14:45:46.568Z,1.67
2022-10-03T14:48:20.127Z,2.05
2022-10-03T14:50:52.317Z,2.13
2022-10-03T14:53:26.410Z,1.80
2022-10-03T14:56:01.028Z,1.55
2022-10-03T14:58:45.114Z,1.88
2022-10-03T15:01:28.494Z,1.73
2022-10-03T15:04:23.056Z,1.60
2022-10-03T15:06:57.017Z,1.60
2022-10-03T15:09:40.238Z,2.00
2022-10-03T15:12:20.748Z,1.80
2022-10-03T15:14:58.187Z,1.90
2022-10-03T15:17:29.663Z,2.03
2022-10-03T15:19:59.272Z,2.08
2022-10-03T15:22:33.315Z,1.92
2022-10-03T15:25:17.919Z,2.15
2022-10-03T15:27:49.564Z,2.15
2022-10-03T15:30:21.214Z,1.77
2022-10-03T15:32:52.589Z,2.03
2022-10-03T15:35:27.911Z,2.47
2022-10-03T15:38:04.077Z,1.90
2022-10-03T15:40:40.931Z,1.80
2022-10-03T15:43:38.503Z,2.08
2022-10-03T15:46:16.630Z,2.08
2022-10-03T15:48:47.376Z,3.33
2022-10-03T15:51:26.336Z,2.30
2022-10-03T15:53:58.455Z,2.25
2022-10-03T15:56:57.068Z,2.15
2022-10-03T15:59:29.876Z,2.17
2022-10-03T16:01:58.821Z,2.10
2022-10-03T16:04:27.408Z,2.08
2022-10-03T16:07:10.942Z,2.28
2022-10-03T16:09:38.730Z,2.58
2022-10-03T16:12:20.311Z,2.55
2022-10-03T16:14:59.411Z,3.00
2022-10-03T16:17:49.629Z,2.45
2022-10-03T16:20:45.985Z,2.42
2022-10-03T16:23:28.470Z,2.05
2022-10-03T16:25:57.977Z,2.70
2022-10-03T16:28:30.140Z,3.03
2022-10-03T16:31:01.969Z,2.58
2022-10-03T16:34:09.913Z,3.08
2022-10-03T16:36:43.587Z,2.58
2022-10-03T16:39:33.585Z,2.78
2022-10-03T16:42:09.119Z,2.88
2022-10-03T16:44:47.991Z,3.17
2022-10-03T16:47:19.308Z,3.15
2022-10-03T16:50:04.627Z,3.38
2022-10-03T16:52:35.149Z,3.40
2022-10-03T16:55:13.425Z,3.33
2022-10-03T16:57:57.004Z,3.33
2022-10-03T17:00:26.787Z,3.10
2022-10-03T17:02:55.399Z,3.33
2022-10-03T17:05:28.156Z,3.17
2022-10-03T17:08:29.701Z,2.95
2022-10-03T17:10:58.240Z,2.75
2022-10-03T17:13:39.139Z,2.55
2022-10-03T17:16:20.619Z,3.38
2022-10-03T17:19:11.180Z,3.20
2022-10-03T17:21:46.058Z,3.30
2022-10-03T17:24:14.337Z,2.95
2022-10-03T17:26:46.206Z,3.20
2022-10-03T17:29:36.854Z,3.20
2022-10-03T17:32:24.513Z,3.25
2022-10-03T17:35:05.312Z,2.75
2022-10-03T17:38:19.542Z,2.58
2022-10-03T17:41:08.393Z,3.50
2022-10-03T17:43:42.401Z,3.60
2022-10-03T17:46:36.493Z,4.20
2022-10-03T17:49:26.438Z,4.15
2022-10-03T17:51:55.198Z,3.30
2022-10-03T17:54:34.090Z,4.07
2022-10-03T17:57:16.429Z,4.60
2022-10-03T18:00:02.529Z,4.07
2022-10-03T18:02:35.215Z,3.47
2022-10-03T18:05:10.606Z,3.55
2022-10-03T18:07:38.072Z,3.83
2022-10-03T18:10:07.448Z,4.55
2022-10-03T18:12:39.977Z,4.67
2022-10-03T18:15:35.599Z,4.60
2022-10-03T18:18:44.178Z,4.23
2022-10-03T18:21:49.033Z,4.77
2022-10-03T18:24:22.620Z,6.03
2022-10-03T18:27:13.536Z,6.13
2022-10-03T18:29:53.780Z,6.03
2022-10-03T18:32:25.322Z,5.77
2022-10-03T18:35:09.085Z,6.13
2022-10-03T18:37:44.528Z,7.20
2022-10-03T18:40:14.577Z,6.80
2022-10-03T18:42:44.970Z,6.70
2022-10-03T18:45:29.368Z,5.67
2022-10-03T18:48:12.684Z,6.27
2022-10-03T18:50:52.397Z,5.83
2022-10-03T18:53:30.613Z,5.97
2022-10-03T18:56:02.574Z,6.07
2022-10-03T18:58:45.414Z,7.07
2022-10-03T19:01:30.834Z,8.17
2022-10-03T19:04:04.657Z,7.17
2022-10-03T19:06:53.423Z,6.47
2022-10-03T19:09:33.799Z,6.47
2022-10-03T19:12:00.454Z,8.20
2022-10-03T19:15:16.530Z,7.57
2022-10-03T19:17:51.974Z,7.77
2022-10-03T19:20:29.658Z,7.87
2022-10-03T19:23:12.157Z,8.67
2022-10-03T19:25:41.809Z,8.83
2022-10-03T19:28:23.076Z,11.87
2022-10-03T19:31:24.837Z,11.37
2022-10-03T19:33:57.125Z,9.57
2022-10-03T19:36:29.799Z,8.30
2022-10-03T19:38:59.521Z,10.53
2022-10-03T19:41:29.340Z,8.33
2022-10-03T19:44:01.751Z,9.43
2022-10-03T19:46:37.559Z,8.93
2022-10-03T19:49:43.033Z,8.37
2022-10-03T19:52:27.035Z,8.90
2022-10-03T19:55:01.482Z,9.10
2022-10-03T19:57:42.033Z,9.93
2022-10-03T20:00:15.043Z,8.10
2022-10-03T20:02:43.761Z,8.63
2022-10-03T20:05:19.156Z,9.27
2022-10-03T20:07:51.537Z,9.40
2022-10-03T20:10:46.328Z,9.83
2022-10-03T20:13:14.207Z,10.23
2022-10-03T20:15:47.930Z,12.20
2022-10-03T20:18:25.977Z,11.07
2022-10-03T20:20:58.092Z,12.57
2022-10-03T20:23:31.961Z,11.50
2022-10-03T20:26:09.940Z,11.80
2022-10-03T20:29:16.651Z,10.70
2022-10-03T20:31:44.576Z,10.63
2022-10-03T20:34:15.433Z,10.67
2022-10-03T20:36:50.220Z,13.17
2022-10-03T20:39:22.601Z,10.90
2022-10-03T20:42:10.045Z,9.77
2022-10-03T20:45:04.007Z,11.70
2022-10-03T20:48:02.077Z,11.97
2022-10-03T20:50:38.187Z,12.40
2022-10-03T20:53:18.732Z,10.07
2022-10-03T20:55:58.958Z,11.87
2022-10-03T20:58:31.954Z,10.53
2022-10-03T21:01:08.393Z,10.67
2022-10-03T21:03:41.931Z,10.70
2022-10-03T21:06:31.284Z,10.20
2022-10-03T21:09:02.638Z,10.83
2022-10-03T21:11:32.096Z,11.57
2022-10-03T21:14:23.057Z,10.20
2022-10-03T21:16:51.629Z,9.90
2022-10-03T21:19:37.803Z,10.53
2022-10-03T21:22:07.406Z,11.27
2022-10-03T21:25:02.534Z,11.37
2022-10-03T21:27:32.922Z,10.73
2022-10-03T21:30:12.074Z,11.30
2022-10-03T21:33:06.932Z,11.10
2022-10-03T21:35:40.530Z,10.27
2022-10-03T21:38:31.375Z,11.03
2022-10-03T21:41:15.999Z,10.47
2022-10-03T21:43:56.069Z,9.93
2022-10-03T21:46:47.160Z,10.13
2022-10-03T21:49:59.611Z,9.87
2022-10-03T21:52:44.746Z,9.03
2022-10-03T21:55:53.056Z,9.47
2022-10-03T21:58:35.403Z,9.63
2022-10-03T22:01:14.398Z,9.80
2022-10-03T22:03:57.997Z,9.50
2022-10-03T22:06:33.155Z,9.03
2022-10-03T22:09:11.478Z,10.20
2022-10-03T22:11:46.896Z,9.23
2022-10-03T22:14:16.574Z,9.27
2022-10-03T22:16:59.312Z,9.93
2022-10-03T22:19:31.708Z,10.70
2022-10-03T22:22:11.092Z,10.77
2022-10-03T22:24:59.788Z,9.70
2022-10-03T22:27:48.802Z,9.63
2022-10-03T22:30:21.105Z,8.80
2022-10-03T22:33:09.155Z,8.37
2022-10-03T22:35:44.840Z,9.33
2022-10-03T22:38:12.056Z,8.37
2022-10-03T22:40:40.469Z,8.77
2022-10-03T22:43:11.117Z,8.57
2022-10-03T22:45:44.551Z,9.10
2022-10-03T22:48:15.023Z,8.87
2022-10-03T22:50:43.050Z,8.73
2022-10-03T22:53:17.989Z,8.77
2022-10-03T22:55:49.830Z,8.90
2022-10-03T22:58:17.669Z,8.27
2022-10-03T23:00:48.049Z,7.97
2022-10-03T23:03:27.191Z,8.57
2022-10-03T23:06:18.994Z,8.60
2022-10-03T23:08:57.610Z,7.83
2022-10-03T23:11:28.244Z,7.80
2022-10-03T23:13:57.818Z,8.13
2022-10-03T23:16:56.531Z,8.10
2022-10-03T23:19:48.088Z,8.13
2022-10-03T23:22:18.325Z,7.33
2022-10-03T23:25:21.749Z,7.23
2022-10-03T23:28:00.615Z,7.10
2022-10-03T23:30:30.414Z,7.47
2022-10-03T23:33:00.845Z,7.90
2022-10-03T23:35:30.670Z,7.53
2022-10-03T23:37:59.092Z,6.97
2022-10-03T23:40:37.785Z,7.37
2022-10-03T23:43:23.215Z,7.00
2022-10-03T23:45:53.562Z,6.87
2022-10-03T23:48:24.076Z,7.93
2022-10-03T23:50:57.597Z,7.80
2022-10-03T23:53:41.166Z,7.27
2022-10-03T23:56:23.532Z,7.57
2022-10-03T23:59:02.412Z,7.17
